createdAt,value
2023-01-13T00:01:30.872Z,1.97
2023-01-13T00:04:01.024Z,1.98
2023-01-13T00:06:27.885Z,1.84
2023-01-13T00:08:59.369Z,1.99
2023-01-13T00:11:26.446Z,1.95
2023-01-13T00:13:55.926Z,1.88
2023-01-13T00:16:22.550Z,1.84
2023-01-13T00:18:51.198Z,1.92
2023-01-13T00:21:22.555Z,1.84
2023-01-13T00:23:49.565Z,1.90
2023-01-13T00:26:18.912Z,1.97
2023-01-13T00:28:50.221Z,1.86
2023-01-13T00:31:21.185Z,1.77
2023-01-13T00:33:53.516Z,1.80
2023-01-13T00:36:21.074Z,1.73
2023-01-13T00:38:50.442Z,1.74
2023-01-13T00:41:22.191Z,1.84
2023-01-13T00:43:51.576Z,1.84
2023-01-13T00:46:19.657Z,1.83
2023-01-13T00:48:52.920Z,1.90
2023-01-13T00:51:24.284Z,1.91
2023-01-13T00:53:51.947Z,1.94
2023-01-13T00:56:34.067Z,1.94
2023-01-13T00:59:07.139Z,2.05
2023-01-13T01:01:36.138Z,2.10
2023-01-13T01:04:07.230Z,2.01
2023-01-13T01:06:36.006Z,2.15
2023-01-13T01:09:03.205Z,2.23
2023-01-13T01:11:34.515Z,2.17
2023-01-13T01:14:03.355Z,2.21
2023-01-13T01:16:33.457Z,2.17
2023-01-13T01:19:03.734Z,2.30
2023-01-13T01:21:33.255Z,2.39
2023-01-13T01:24:01.639Z,2.32
2023-01-13T01:26:31.909Z,2.36
2023-01-13T01:29:02.277Z,2.40
2023-01-13T01:31:35.474Z,2.34
2023-01-13T01:34:02.546Z,2.42
2023-01-13T01:36:34.954Z,2.50
2023-01-13T01:39:01.617Z,2.46
2023-01-13T01:41:36.881Z,2.48
2023-01-13T01:44:25.142Z,2.56
2023-01-13T01:46:52.207Z,2.64
2023-01-13T01:49:24.279Z,2.79
2023-01-13T01:52:08.811Z,2.72
2023-01-13T01:54:35.303Z,2.70
2023-01-13T01:57:01.929Z,2.75
2023-01-13T01:59:32.071Z,2.74
2023-01-13T02:01:59.092Z,2.74
2023-01-13T02:04:33.133Z,2.76
2023-01-13T02:07:04.392Z,2.74
2023-01-13T02:09:31.229Z,2.78
2023-01-13T02:12:16.204Z,2.78
2023-01-13T02:14:44.347Z,2.70
2023-01-13T02:17:33.557Z,2.70
2023-01-13T02:20:27.832Z,2.54
2023-01-13T02:23:47.038Z,2.64
2023-01-13T02:26:16.692Z,2.57
2023-01-13T02:29:16.488Z,2.52
2023-01-13T02:31:48.334Z,2.52
2023-01-13T02:34:30.030Z,2.63
2023-01-13T02:37:02.303Z,2.69
2023-01-13T02:39:35.499Z,2.73
2023-01-13T02:42:51.802Z,2.63
2023-01-13T02:45:19.305Z,2.45
2023-01-13T02:47:50.628Z,2.47
2023-01-13T02:50:28.987Z,2.35
2023-01-13T02:53:02.333Z,2.25
2023-01-13T02:55:46.334Z,2.16
2023-01-13T02:58:20.653Z,2.10
2023-01-13T03:00:49.214Z,2.03
2023-01-13T03:03:15.873Z,2.20
2023-01-13T03:05:44.843Z,2.23
2023-01-13T03:08:22.744Z,2.36
2023-01-13T03:11:10.237Z,2.30
2023-01-13T03:13:55.621Z,2.44
2023-01-13T03:16:46.852Z,2.29
2023-01-13T03:20:04.362Z,2.31
2023-01-13T03:22:36.915Z,2.32
2023-01-13T03:25:18.401Z,2.31
2023-01-13T03:27:53.464Z,2.39
2023-01-13T03:30:30.888Z,2.29
2023-01-13T03:33:06.793Z,2.19
2023-01-13T03:35:56.151Z,2.38
2023-01-13T03:38:28.361Z,2.35
2023-01-13T03:40:59.627Z,2.37
2023-01-13T03:43:54.592Z,2.47
2023-01-13T03:46:41.324Z,2.52
2023-01-13T03:49:12.292Z,2.36
2023-01-13T03:51:45.584Z,2.38
2023-01-13T03:54:14.266Z,2.46
2023-01-13T03:56:54.719Z,2.36
2023-01-13T03:59:29.535Z,2.10
2023-01-13T04:02:14.175Z,2.36
2023-01-13T04:05:03.001Z,2.33
2023-01-13T04:07:44.809Z,2.35
2023-01-13T04:10:14.159Z,2.40
2023-01-13T04:13:01.039Z,2.38
2023-01-13T04:15:59.210Z,2.44
2023-01-13T04:18:27.806Z,2.44
2023-01-13T04:20:57.499Z,2.47
2023-01-13T04:23:24.651Z,2.19
2023-01-13T04:25:51.817Z,2.38
2023-01-13T04:28:21.692Z,2.45
2023-01-13T04:30:51.137Z,2.30
2023-01-13T04:33:19.514Z,2.42
2023-01-13T04:35:46.949Z,2.46
2023-01-13T04:38:16.672Z,2.57
2023-01-13T04:40:43.474Z,2.53
2023-01-13T04:43:12.438Z,2.45
2023-01-13T04:45:39.197Z,2.29
2023-01-13T04:48:09.015Z,2.48
2023-01-13T04:50:40.541Z,2.54
2023-01-13T04:53:07.489Z,2.55
2023-01-13T04:55:34.179Z,2.48
2023-01-13T04:58:10.282Z,2.39
2023-01-13T05:00:39.693Z,2.55
2023-01-13T05:03:06.251Z,2.54
2023-01-13T05:05:35.529Z,2.52
2023-01-13T05:08:02.192Z,2.42
2023-01-13T05:10:28.868Z,2.17
2023-01-13T05:13:13.951Z,1.98
2023-01-13T05:16:21.295Z,2.24
2023-01-13T05:18:47.858Z,2.38
2023-01-13T05:21:34.393Z,2.26
2023-01-13T05:24:19.782Z,2.24
2023-01-13T05:26:50.898Z,2.09
2023-01-13T05:29:19.682Z,1.98
2023-01-13T05:31:48.697Z,2.03
2023-01-13T05:34:15.315Z,1.97
2023-01-13T05:36:44.147Z,1.87
2023-01-13T05:39:10.722Z,1.74
2023-01-13T05:41:55.579Z,1.68
2023-01-13T05:44:25.670Z,1.59
2023-01-13T05:46:52.277Z,1.59
2023-01-13T05:49:18.847Z,1.59
2023-01-13T05:51:45.585Z,1.70
2023-01-13T05:54:14.424Z,1.85
2023-01-13T05:56:41.050Z,1.94
2023-01-13T05:59:10.082Z,2.04
2023-01-13T06:01:37.221Z,1.94
2023-01-13T06:04:09.171Z,1.98
2023-01-13T06:06:35.732Z,1.96
2023-01-13T06:09:04.579Z,2.00
2023-01-13T06:11:33.396Z,2.08
2023-01-13T06:14:03.098Z,2.13
2023-01-13T06:16:31.945Z,2.04
2023-01-13T06:19:01.533Z,1.97
2023-01-13T06:21:32.399Z,1.90
2023-01-13T06:24:02.003Z,2.07
2023-01-13T06:26:36.221Z,2.05
2023-01-13T06:29:02.796Z,2.02
2023-01-13T06:31:33.392Z,1.92
2023-01-13T06:34:08.915Z,1.99
2023-01-13T06:36:49.764Z,2.01
2023-01-13T06:39:19.877Z,2.03
2023-01-13T06:42:08.208Z,1.92
2023-01-13T06:44:34.841Z,2.07
2023-01-13T06:47:06.253Z,2.36
2023-01-13T06:49:35.288Z,2.38
2023-01-13T06:52:01.870Z,2.25
2023-01-13T06:54:35.587Z,2.19
2023-01-13T06:57:02.592Z,2.13
2023-01-13T06:59:29.318Z,1.70
2023-01-13T07:01:56.145Z,2.17
2023-01-13T07:04:22.852Z,2.10
2023-01-13T07:06:51.640Z,2.18
2023-01-13T07:09:18.544Z,2.28
2023-01-13T07:11:45.176Z,2.35
2023-01-13T07:14:32.777Z,2.12
2023-01-13T07:16:59.377Z,2.06
2023-01-13T07:19:28.467Z,1.94
2023-01-13T07:21:59.894Z,1.90
2023-01-13T07:24:28.729Z,2.25
2023-01-13T07:26:55.298Z,2.31
2023-01-13T07:29:24.446Z,2.46
2023-01-13T07:31:53.178Z,2.57
2023-01-13T07:34:19.815Z,2.36
2023-01-13T07:36:51.418Z,2.46
2023-01-13T07:39:18.062Z,2.66
2023-01-13T07:42:03.312Z,2.87
2023-01-13T07:44:30.046Z,2.72
2023-01-13T07:46:58.883Z,2.82
2023-01-13T07:49:27.951Z,2.92
2023-01-13T07:51:56.785Z,3.01
2023-01-13T07:54:35.237Z,3.06
2023-01-13T07:57:06.607Z,3.06
2023-01-13T07:59:35.409Z,3.05
2023-01-13T08:02:04.655Z,3.14
2023-01-13T08:04:31.231Z,3.14
2023-01-13T08:07:00.162Z,3.02
2023-01-13T08:09:26.761Z,2.94
2023-01-13T08:12:14.597Z,2.92
2023-01-13T08:14:41.058Z,2.86
2023-01-13T08:17:10.711Z,2.89
2023-01-13T08:19:37.271Z,2.66
2023-01-13T08:22:04.030Z,2.78
2023-01-13T08:24:32.958Z,2.91
2023-01-13T08:26:59.515Z,3.05
2023-01-13T08:29:26.113Z,2.96
2023-01-13T08:31:55.177Z,3.01
2023-01-13T08:34:21.783Z,2.94
2023-01-13T08:36:49.959Z,2.94
2023-01-13T08:39:19.102Z,2.92
2023-01-13T08:41:58.493Z,3.10
2023-01-13T08:44:30.407Z,2.97
2023-01-13T08:46:57.851Z,3.02
2023-01-13T08:49:27.877Z,2.71
2023-01-13T08:51:59.380Z,2.88
2023-01-13T08:54:25.987Z,3.00
2023-01-13T08:56:57.502Z,3.11
2023-01-13T08:59:26.514Z,3.08
2023-01-13T09:01:53.193Z,3.06
2023-01-13T09:04:23.199Z,3.00
2023-01-13T09:06:52.239Z,3.07
2023-01-13T09:09:18.905Z,3.09
2023-01-13T09:12:06.922Z,2.98
2023-01-13T09:14:36.081Z,3.06
2023-01-13T09:17:07.534Z,3.10
2023-01-13T09:19:34.449Z,3.13
2023-01-13T09:22:03.944Z,3.16
2023-01-13T09:24:35.308Z,3.22
2023-01-13T09:27:07.133Z,3.27
2023-01-13T09:29:33.906Z,3.49
2023-01-13T09:32:02.567Z,3.17
2023-01-13T09:34:47.752Z,3.18
2023-01-13T09:37:16.564Z,3.16
2023-01-13T09:39:43.218Z,3.28
2023-01-13T09:42:50.341Z,3.20
2023-01-13T09:45:32.644Z,2.99
2023-01-13T09:48:25.233Z,3.06
2023-01-13T09:50:55.124Z,3.07
2023-01-13T09:53:32.336Z,2.92
2023-01-13T09:56:00.978Z,2.93
2023-01-13T09:58:30.333Z,2.95
2023-01-13T10:01:11.880Z,3.05
2023-01-13T10:03:38.668Z,3.07
2023-01-13T10:06:36.551Z,3.18
2023-01-13T10:09:05.932Z,3.17
2023-01-13T10:11:57.739Z,3.34
2023-01-13T10:14:31.001Z,3.25
2023-01-13T10:17:22.589Z,3.25
2023-01-13T10:19:59.739Z,3.35
2023-01-13T10:22:47.830Z,3.39
2023-01-13T10:25:27.758Z,3.23
2023-01-13T10:27:56.462Z,3.20
2023-01-13T10:30:35.071Z,3.27
2023-01-13T10:33:17.569Z,3.29
2023-01-13T10:35:57.809Z,3.36
2023-01-13T10:38:27.112Z,3.39
2023-01-13T10:40:58.483Z,3.40
2023-01-13T10:43:25.817Z,3.53
2023-01-13T10:45:58.786Z,3.44
2023-01-13T10:48:36.232Z,3.43
2023-01-13T10:51:29.064Z,3.34
2023-01-13T10:54:14.733Z,3.51
2023-01-13T10:56:44.964Z,3.50
2023-01-13T10:59:24.827Z,3.40
2023-01-13T11:02:01.158Z,3.35
2023-01-13T11:04:35.110Z,3.25
2023-01-13T11:07:06.627Z,3.34
2023-01-13T11:09:33.643Z,3.40
2023-01-13T11:12:00.406Z,3.36
2023-01-13T11:14:41.928Z,3.38
2023-01-13T11:17:20.430Z,3.36
2023-01-13T11:19:53.983Z,3.48
2023-01-13T11:22:28.831Z,3.37
2023-01-13T11:24:58.919Z,3.49
2023-01-13T11:27:31.393Z,3.36
2023-01-13T11:30:01.149Z,3.61
2023-01-13T11:32:34.953Z,3.63
2023-01-13T11:35:15.421Z,3.43
2023-01-13T11:37:47.755Z,3.50
2023-01-13T11:40:25.991Z,3.64
2023-01-13T11:43:18.311Z,3.63
2023-01-13T11:45:59.726Z,3.74
2023-01-13T11:48:35.726Z,3.79
2023-01-13T11:51:16.737Z,3.68
2023-01-13T11:53:49.284Z,3.66
2023-01-13T11:56:30.457Z,3.80
2023-01-13T11:59:12.291Z,4.02
2023-01-13T12:01:44.920Z,3.77
2023-01-13T12:04:29.361Z,3.89
2023-01-13T12:07:19.236Z,3.85
2023-01-13T12:10:34.336Z,3.95
2023-01-13T12:13:07.115Z,3.82
2023-01-13T12:15:56.596Z,3.72
2023-01-13T12:18:38.318Z,3.51
2023-01-13T12:21:22.175Z,3.68
2023-01-13T12:23:51.657Z,3.61
2023-01-13T12:26:18.742Z,4.29
2023-01-13T12:28:56.965Z,4.57
2023-01-13T12:31:25.134Z,4.48
2023-01-13T12:33:54.558Z,4.32
2023-01-13T12:36:33.121Z,4.40
2023-01-13T12:39:25.777Z,4.45
2023-01-13T12:42:13.602Z,4.21
2023-01-13T12:45:00.320Z,4.36
2023-01-13T12:47:38.017Z,4.17
2023-01-13T12:50:22.936Z,4.05
2023-01-13T12:52:56.628Z,4.00
2023-01-13T12:55:35.208Z,4.00
2023-01-13T12:58:04.781Z,4.20
2023-01-13T13:01:00.109Z,4.01
2023-01-13T13:03:37.235Z,4.06
2023-01-13T13:06:06.245Z,4.17
2023-01-13T13:08:51.146Z,4.21
2023-01-13T13:11:40.731Z,4.18
2023-01-13T13:14:13.759Z,4.05
2023-01-13T13:16:51.156Z,3.95
2023-01-13T13:19:17.717Z,4.05
2023-01-13T13:22:11.833Z,4.22
2023-01-13T13:24:44.320Z,4.21
2023-01-13T13:27:21.938Z,4.06
2023-01-13T13:30:06.574Z,4.30
2023-01-13T13:32:41.613Z,3.99
2023-01-13T13:35:08.168Z,4.10
2023-01-13T13:38:17.817Z,4.32
2023-01-13T13:41:06.956Z,4.20
2023-01-13T13:44:19.055Z,4.34
2023-01-13T13:46:49.478Z,4.50
2023-01-13T13:49:36.473Z,4.27
2023-01-13T13:52:10.938Z,4.34
2023-01-13T13:54:44.125Z,4.16
2023-01-13T13:57:19.789Z,4.17
2023-01-13T13:59:54.112Z,4.38
2023-01-13T14:02:36.478Z,4.55
2023-01-13T14:05:30.537Z,4.48
2023-01-13T14:08:03.935Z,4.32
2023-01-13T14:10:37.352Z,4.43
2023-01-13T14:13:35.412Z,4.48
2023-01-13T14:16:07.293Z,4.70
2023-01-13T14:18:45.831Z,4.75
2023-01-13T14:21:20.357Z,4.35
2023-01-13T14:24:22.480Z,4.45
2023-01-13T14:26:53.648Z,4.67
2023-01-13T14:29:24.517Z,4.75
2023-01-13T14:31:57.680Z,4.74
2023-01-13T14:34:33.302Z,4.87
2023-01-13T14:37:01.345Z,4.97
2023-01-13T14:39:40.475Z,4.95
2023-01-13T14:42:18.991Z,4.92
2023-01-13T14:44:49.873Z,4.89
2023-01-13T14:47:23.013Z,4.93
2023-01-13T14:50:04.757Z,4.91
2023-01-13T14:52:40.270Z,4.94
2023-01-13T14:55:10.335Z,4.92
2023-01-13T14:57:41.463Z,5.01
2023-01-13T15:00:14.189Z,4.97
2023-01-13T15:02:53.566Z,5.01
2023-01-13T15:05:22.561Z,5.04
2023-01-13T15:08:14.703Z,4.94
2023-01-13T15:10:49.281Z,5.08
2023-01-13T15:13:32.255Z,4.92
2023-01-13T15:16:01.492Z,4.96
2023-01-13T15:18:30.485Z,4.94
2023-01-13T15:20:57.217Z,4.87
2023-01-13T15:23:26.031Z,4.89
2023-01-13T15:25:54.998Z,4.74
2023-01-13T15:28:28.280Z,4.72
2023-01-13T15:30:58.149Z,4.69
2023-01-13T15:33:24.796Z,4.75
2023-01-13T15:35:55.385Z,4.79
2023-01-13T15:38:23.912Z,4.84
2023-01-13T15:40:55.761Z,4.91
2023-01-13T15:43:42.347Z,4.99
2023-01-13T15:46:19.997Z,4.90
2023-01-13T15:48:46.885Z,4.63
2023-01-13T15:51:24.269Z,4.66
2023-01-13T15:53:53.101Z,4.55
2023-01-13T15:56:26.639Z,4.70
2023-01-13T15:58:53.594Z,4.64
2023-01-13T16:01:20.810Z,4.81
2023-01-13T16:03:47.669Z,4.73
2023-01-13T16:06:20.868Z,4.87
2023-01-13T16:08:47.728Z,4.79
2023-01-13T16:11:16.843Z,4.98
2023-01-13T16:13:45.884Z,5.07
2023-01-13T16:16:27.072Z,4.90
2023-01-13T16:18:54.480Z,4.95
2023-01-13T16:21:22.235Z,5.04
2023-01-13T16:23:49.979Z,5.13
2023-01-13T16:26:25.588Z,4.98
2023-01-13T16:28:54.549Z,4.78
2023-01-13T16:31:26.706Z,4.86
2023-01-13T16:33:56.047Z,4.94
2023-01-13T16:36:24.925Z,5.09
2023-01-13T16:38:57.262Z,4.94
2023-01-13T16:41:25.101Z,4.98
2023-01-13T16:43:52.704Z,5.09
2023-01-13T16:47:09.312Z,5.20
2023-01-13T16:49:40.737Z,5.15
2023-01-13T16:52:49.219Z,5.27
2023-01-13T16:55:28.014Z,5.21
2023-01-13T16:58:07.531Z,5.19
2023-01-13T17:00:35.366Z,5.25
2023-01-13T17:03:05.193Z,5.15
2023-01-13T17:05:31.823Z,5.25
2023-01-13T17:08:07.975Z,5.12
2023-01-13T17:10:52.916Z,5.07
2023-01-13T17:13:48.589Z,5.22
2023-01-13T17:16:17.909Z,5.16
2023-01-13T17:18:48.192Z,5.05
2023-01-13T17:21:42.862Z,5.14
2023-01-13T17:24:12.398Z,5.21
2023-01-13T17:26:48.981Z,5.02
2023-01-13T17:29:22.299Z,5.00
2023-01-13T17:31:52.685Z,4.98
2023-01-13T17:34:20.268Z,5.01
2023-01-13T17:36:46.976Z,4.58
2023-01-13T17:39:19.083Z,4.81
2023-01-13T17:42:01.386Z,4.50
2023-01-13T17:44:31.004Z,4.80
2023-01-13T17:47:00.336Z,4.83
2023-01-13T17:49:26.815Z,4.51
2023-01-13T17:51:53.515Z,4.72
2023-01-13T17:54:21.121Z,4.71
2023-01-13T17:56:56.481Z,4.29
2023-01-13T17:59:24.307Z,4.51
2023-01-13T18:01:53.531Z,4.67
2023-01-13T18:07:48.569Z,5.01
2023-01-13T18:10:17.476Z,4.88
2023-01-13T18:12:44.063Z,5.17
2023-01-13T18:15:12.688Z,5.28
2023-01-13T18:17:39.259Z,5.38
2023-01-13T18:20:24.711Z,5.35
2023-01-13T18:23:14.782Z,5.25
2023-01-13T18:28:50.803Z,5.24
2023-01-13T18:31:21.840Z,5.23
2023-01-13T18:33:48.358Z,5.06
2023-01-13T18:36:17.253Z,4.95
2023-01-13T18:38:46.388Z,5.19
2023-01-13T18:41:31.470Z,5.29
2023-01-13T18:44:28.888Z,5.27
2023-01-13T18:46:57.954Z,5.16
2023-01-13T18:49:26.771Z,5.19
2023-01-13T18:51:56.068Z,5.27
2023-01-13T18:54:22.983Z,5.47
2023-01-13T18:56:50.157Z,5.35
2023-01-13T18:59:26.752Z,5.24
2023-01-13T19:01:53.524Z,5.37
2023-01-13T19:04:22.306Z,5.45
2023-01-13T19:06:51.921Z,5.29
2023-01-13T19:09:22.751Z,5.12
2023-01-13T19:11:50.502Z,5.31
2023-01-13T19:14:34.122Z,5.82
2023-01-13T19:17:03.612Z,5.92
2023-01-13T19:19:31.579Z,5.98
2023-01-13T19:22:03.254Z,5.93
2023-01-13T19:24:32.183Z,5.99
2023-01-13T19:26:58.901Z,5.79
2023-01-13T19:29:28.100Z,5.90
2023-01-13T19:32:00.036Z,5.71
2023-01-13T19:34:26.920Z,5.75
2023-01-13T19:36:53.943Z,5.63
2023-01-13T19:39:21.590Z,5.41
2023-01-13T19:42:28.326Z,5.46
2023-01-13T19:45:25.174Z,5.59
2023-01-13T19:47:55.271Z,5.44
2023-01-13T19:51:08.561Z,5.39
2023-01-13T19:53:38.195Z,5.46
2023-01-13T19:56:10.638Z,5.49
2023-01-13T20:01:41.509Z,5.37
2023-01-13T20:04:21.961Z,5.49
2023-01-13T20:06:48.669Z,5.45
2023-01-13T20:09:23.710Z,5.57
2023-01-13T20:12:17.223Z,5.41
2023-01-13T20:14:51.645Z,5.54
2023-01-13T20:17:44.190Z,5.68
2023-01-13T20:20:16.900Z,5.64
2023-01-13T20:23:13.269Z,5.72
2023-01-13T20:25:51.713Z,5.60
2023-01-13T20:28:20.129Z,5.34
2023-01-13T20:31:27.433Z,5.54
2023-01-13T20:34:05.407Z,5.64
2023-01-13T20:36:48.809Z,5.50
2023-01-13T20:39:32.833Z,5.40
2023-01-13T20:42:18.218Z,5.48
2023-01-13T20:44:47.413Z,5.50
2023-01-13T20:47:21.832Z,5.69
2023-01-13T20:50:44.589Z,5.64
2023-01-13T20:53:11.343Z,5.65
2023-01-13T20:55:40.005Z,5.57
2023-01-13T20:58:06.766Z,5.62
2023-01-13T21:00:48.567Z,5.60
2023-01-13T21:03:24.707Z,5.61
2023-01-13T21:05:54.060Z,5.73
2023-01-13T21:08:20.797Z,5.54
2023-01-13T21:10:49.939Z,5.72
2023-01-13T21:13:35.273Z,5.71
2023-01-13T21:16:05.032Z,5.65
2023-01-13T21:18:52.807Z,5.74
2023-01-13T21:21:22.247Z,5.22
2023-01-13T21:23:58.428Z,5.40
2023-01-13T21:26:25.189Z,5.45
2023-01-13T21:28:59.302Z,4.90
2023-01-13T21:31:27.158Z,5.29
2023-01-13T21:33:57.902Z,5.29
2023-01-13T21:36:25.092Z,5.37
2023-01-13T21:38:52.902Z,5.05
2023-01-13T21:41:40.041Z,4.37
2023-01-13T21:44:34.205Z,4.71
2023-01-13T21:47:22.036Z,4.48
2023-01-13T21:49:48.668Z,4.89
2023-01-13T21:52:16.010Z,5.07
2023-01-13T21:55:01.324Z,5.18
2023-01-13T21:57:35.427Z,5.05
2023-01-13T22:00:02.238Z,5.04
2023-01-13T22:02:39.902Z,5.06
2023-01-13T22:05:08.597Z,5.07
2023-01-13T22:07:36.873Z,5.09
2023-01-13T22:10:07.038Z,5.10
2023-01-13T22:12:34.083Z,5.26
2023-01-13T22:15:03.622Z,5.38
2023-01-13T22:17:32.304Z,5.34
2023-01-13T22:20:03.303Z,5.13
2023-01-13T22:22:35.263Z,4.64
2023-01-13T22:25:23.461Z,4.64
2023-01-13T22:27:50.073Z,4.72
2023-01-13T22:30:22.015Z,4.81
2023-01-13T22:32:53.356Z,4.61
2023-01-13T22:35:20.829Z,4.88
2023-01-13T22:37:47.564Z,5.13
2023-01-13T22:40:17.141Z,5.28
2023-01-13T22:42:48.329Z,5.20
2023-01-13T22:45:15.326Z,5.35
2023-01-13T22:47:42.676Z,5.35
2023-01-13T22:50:13.309Z,5.50
2023-01-13T22:52:40.347Z,5.38
2023-01-13T22:55:07.644Z,5.29
2023-01-13T22:57:46.699Z,5.09
2023-01-13T23:00:15.069Z,5.27
2023-01-13T23:02:42.109Z,5.35
2023-01-13T23:05:13.907Z,5.40
2023-01-13T23:07:40.965Z,5.54
2023-01-13T23:10:07.963Z,5.57
2023-01-13T23:12:39.400Z,5.50
2023-01-13T23:15:06.564Z,5.40
2023-01-13T23:17:33.456Z,5.47
2023-01-13T23:20:03.562Z,5.54
2023-01-13T23:22:30.652Z,5.68
2023-01-13T23:24:57.673Z,5.52
2023-01-13T23:27:24.775Z,5.37
2023-01-13T23:29:51.484Z,5.45
2023-01-13T23:32:18.514Z,5.42
2023-01-13T23:34:45.517Z,5.36
2023-01-13T23:37:12.343Z,5.43
2023-01-13T23:39:39.135Z,5.36
2023-01-13T23:42:06.166Z,5.14
2023-01-13T23:44:33.234Z,4.97
2023-01-13T23:46:59.971Z,5.20
2023-01-13T23:49:26.946Z,4.90
2023-01-13T23:51:53.626Z,5.12
2023-01-13T23:54:20.643Z,5.14
2023-01-13T23:56:49.824Z,5.19
2023-01-13T23:59:16.535Z,5.38
